createdAt,value
2023-03-29T00:02:36.130Z,88.20
2023-03-29T00:05:25.921Z,88.10
2023-03-29T00:08:14.805Z,88.00
2023-03-29T00:11:03.962Z,87.60
2023-03-29T00:13:51.013Z,87.50
2023-03-29T00:16:39.591Z,87.30
2023-03-29T00:19:24.866Z,86.90
2023-03-29T00:22:10.844Z,86.60
2023-03-29T00:24:56.253Z,86.30
2023-03-29T00:27:42.489Z,85.70
2023-03-29T00:30:27.804Z,85.60
2023-03-29T00:33:15.016Z,85.00
2023-03-29T00:36:04.179Z,84.50
2023-03-29T00:38:49.738Z,84.00
2023-03-29T00:41:35.166Z,83.50
2023-03-29T00:44:58.659Z,83.40
2023-03-29T00:48:11.359Z,82.60
2023-03-29T00:51:03.866Z,81.70
2023-03-29T00:53:53.697Z,81.60
2023-03-29T00:56:46.556Z,81.20
2023-03-29T00:59:35.648Z,81.30
2023-03-29T01:02:27.537Z,80.60
2023-03-29T01:05:20.201Z,81.00
2023-03-29T01:08:11.100Z,80.90
2023-03-29T01:11:14.680Z,81.20
2023-03-29T01:14:06.378Z,81.50
2023-03-29T01:16:53.273Z,81.40
2023-03-29T01:19:46.611Z,81.70
2023-03-29T01:22:47.108Z,82.00
2023-03-29T01:26:01.093Z,81.90
2023-03-29T01:28:52.532Z,81.90
2023-03-29T01:31:42.408Z,82.00
2023-03-29T01:34:37.638Z,82.20
2023-03-29T01:37:35.101Z,82.10
2023-03-29T01:40:21.595Z,82.10
2023-03-29T01:43:36.434Z,82.30
2023-03-29T01:47:20.672Z,82.50
2023-03-29T01:50:12.295Z,82.70
2023-03-29T01:53:02.677Z,82.50
2023-03-29T01:55:56.365Z,82.70
2023-03-29T01:58:52.356Z,82.70
2023-03-29T02:01:43.764Z,82.70
2023-03-29T02:04:39.935Z,82.80
2023-03-29T02:07:37.256Z,82.60
2023-03-29T02:10:25.768Z,82.70
2023-03-29T02:13:11.640Z,82.70
2023-03-29T02:16:00.269Z,82.60
2023-03-29T02:18:48.838Z,83.50
2023-03-29T02:21:40.205Z,82.60
2023-03-29T02:24:30.790Z,82.30
2023-03-29T02:27:16.547Z,82.20
2023-03-29T02:30:01.972Z,82.10
2023-03-29T02:33:02.121Z,81.90
2023-03-29T02:35:59.960Z,82.00
2023-03-29T02:38:46.589Z,81.40
2023-03-29T02:41:32.889Z,81.60
2023-03-29T02:44:26.290Z,81.50
2023-03-29T02:47:25.472Z,81.20
2023-03-29T02:50:12.046Z,81.20
2023-03-29T02:53:05.104Z,81.00
2023-03-29T02:55:52.837Z,80.90
2023-03-29T02:58:38.692Z,80.90
2023-03-29T03:01:24.419Z,80.90
2023-03-29T03:04:11.036Z,80.90
2023-03-29T03:06:56.602Z,80.90
2023-03-29T03:09:42.824Z,80.50
2023-03-29T03:12:28.547Z,80.60
2023-03-29T03:15:14.697Z,80.60
2023-03-29T03:18:00.739Z,80.80
2023-03-29T03:21:01.761Z,80.60
2023-03-29T03:23:48.520Z,80.80
2023-03-29T03:26:36.015Z,81.00
2023-03-29T03:29:27.017Z,81.10
2023-03-29T03:32:33.484Z,81.20
2023-03-29T03:35:39.306Z,81.20
2023-03-29T03:38:26.119Z,81.30
2023-03-29T03:41:16.410Z,81.50
2023-03-29T03:44:02.552Z,81.60
2023-03-29T03:46:49.096Z,81.90
2023-03-29T03:49:35.114Z,81.80
2023-03-29T03:52:20.753Z,81.90
2023-03-29T03:55:06.593Z,82.00
2023-03-29T03:58:07.162Z,81.90
2023-03-29T04:00:53.069Z,81.70
2023-03-29T04:03:51.930Z,81.80
2023-03-29T04:06:40.192Z,81.90
2023-03-29T04:09:46.449Z,81.80
2023-03-29T04:12:51.084Z,81.90
2023-03-29T04:15:38.791Z,82.00
2023-03-29T04:18:28.467Z,82.00
2023-03-29T04:21:17.457Z,82.20
2023-03-29T04:24:04.942Z,82.00
2023-03-29T04:26:56.116Z,82.20
2023-03-29T04:29:44.874Z,82.30
2023-03-29T04:32:39.760Z,82.40
2023-03-29T04:35:27.582Z,82.20
2023-03-29T04:38:13.199Z,82.40
2023-03-29T04:41:05.644Z,82.40
2023-03-29T04:44:02.741Z,82.50
2023-03-29T04:46:49.418Z,82.50
2023-03-29T04:49:53.508Z,82.50
2023-03-29T04:52:50.686Z,82.60
2023-03-29T04:55:35.806Z,82.90
2023-03-29T04:58:25.245Z,83.00
2023-03-29T05:01:15.238Z,83.20
2023-03-29T05:04:05.896Z,83.30
2023-03-29T05:06:57.780Z,83.30
2023-03-29T05:09:43.755Z,83.40
2023-03-29T05:12:33.413Z,83.40
2023-03-29T05:15:19.501Z,83.60
2023-03-29T05:18:06.889Z,83.40
2023-03-29T05:20:54.056Z,83.50
2023-03-29T05:23:40.597Z,83.30
2023-03-29T05:26:26.700Z,83.40
2023-03-29T05:29:14.097Z,83.30
2023-03-29T05:32:02.378Z,83.50
2023-03-29T05:34:47.964Z,83.70
2023-03-29T05:37:34.777Z,83.70
2023-03-29T05:40:24.720Z,83.90
2023-03-29T05:43:33.680Z,84.00
2023-03-29T05:46:19.830Z,83.90
2023-03-29T05:49:10.539Z,84.00
2023-03-29T05:52:21.059Z,84.20
2023-03-29T05:55:08.119Z,84.20
2023-03-29T05:57:53.509Z,84.70
2023-03-29T06:00:43.749Z,84.90
2023-03-29T06:03:47.332Z,85.40
2023-03-29T06:06:36.106Z,86.50
2023-03-29T06:09:26.010Z,86.20
2023-03-29T06:12:20.441Z,86.60
2023-03-29T06:15:16.736Z,86.80
2023-03-29T06:18:06.238Z,87.30
2023-03-29T06:20:56.764Z,87.30
2023-03-29T06:23:48.744Z,87.30
2023-03-29T06:26:36.756Z,87.30
2023-03-29T06:29:22.542Z,87.50
2023-03-29T06:32:08.862Z,87.40
2023-03-29T06:35:05.145Z,87.60
2023-03-29T06:38:05.620Z,87.20
2023-03-29T06:41:13.710Z,86.80
2023-03-29T06:44:19.624Z,86.80
2023-03-29T06:47:18.544Z,86.70
2023-03-29T06:50:09.993Z,86.50
2023-03-29T06:53:04.379Z,86.30
2023-03-29T06:55:52.477Z,86.20
2023-03-29T06:58:58.397Z,86.20
2023-03-29T07:02:04.350Z,86.00
2023-03-29T07:05:06.988Z,85.70
2023-03-29T07:08:02.874Z,85.40
2023-03-29T07:11:13.289Z,85.60
2023-03-29T07:14:13.211Z,85.40
2023-03-29T07:16:59.582Z,85.60
2023-03-29T07:19:53.767Z,85.30
2023-03-29T07:22:58.436Z,85.30
2023-03-29T07:25:50.479Z,85.40
2023-03-29T07:28:39.965Z,85.50
2023-03-29T07:31:25.688Z,85.40
2023-03-29T07:34:18.928Z,85.20
2023-03-29T07:37:04.303Z,85.10
2023-03-29T07:39:50.848Z,85.20
2023-03-29T07:43:03.062Z,85.20
2023-03-29T07:45:54.153Z,85.10
2023-03-29T07:48:40.254Z,84.80
2023-03-29T07:51:31.972Z,84.80
2023-03-29T07:54:25.729Z,84.90
2023-03-29T07:57:17.055Z,85.00
2023-03-29T08:00:17.219Z,84.60
2023-03-29T08:03:13.347Z,84.40
2023-03-29T08:06:02.924Z,84.10
2023-03-29T08:08:48.546Z,84.10
2023-03-29T08:11:38.519Z,83.80
2023-03-29T08:14:31.266Z,84.10
2023-03-29T08:17:43.613Z,83.80
2023-03-29T08:20:28.958Z,82.70
2023-03-29T08:23:21.331Z,82.40
2023-03-29T08:26:29.863Z,82.50
2023-03-29T08:29:20.686Z,82.40
2023-03-29T08:32:08.710Z,81.90
2023-03-29T08:34:55.095Z,81.70
2023-03-29T08:37:44.328Z,81.70
2023-03-29T08:40:33.030Z,81.40
2023-03-29T08:43:34.647Z,81.40
2023-03-29T08:46:57.173Z,81.50
2023-03-29T08:49:53.987Z,81.30
2023-03-29T08:52:58.803Z,80.70
2023-03-29T08:56:27.263Z,80.50
2023-03-29T08:59:33.301Z,80.30
2023-03-29T09:02:28.430Z,80.80
2023-03-29T09:05:28.077Z,80.20
2023-03-29T09:08:24.285Z,80.40
2023-03-29T09:11:37.853Z,80.10
2023-03-29T09:14:41.124Z,80.80
2023-03-29T09:17:35.967Z,79.70
2023-03-29T09:20:42.575Z,79.10
2023-03-29T09:24:02.016Z,79.00
2023-03-29T09:27:10.719Z,78.90
2023-03-29T09:30:37.682Z,79.00
2023-03-29T09:33:30.958Z,78.40
2023-03-29T09:36:45.492Z,77.10
2023-03-29T09:39:31.571Z,77.80
2023-03-29T09:42:29.305Z,78.30
2023-03-29T09:45:15.054Z,78.10
2023-03-29T09:48:09.373Z,78.20
2023-03-29T09:50:55.880Z,78.40
2023-03-29T09:53:41.561Z,78.50
2023-03-29T09:56:40.290Z,79.60
2023-03-29T09:59:29.067Z,79.10
2023-03-29T10:02:14.598Z,79.40
2023-03-29T10:05:05.641Z,78.70
2023-03-29T10:07:53.684Z,79.00
2023-03-29T10:10:39.273Z,78.90
2023-03-29T10:13:43.897Z,79.90
2023-03-29T10:16:38.508Z,80.00
2023-03-29T10:19:35.776Z,79.80
2023-03-29T10:22:37.806Z,80.60
2023-03-29T10:25:31.234Z,80.50
2023-03-29T10:28:21.217Z,80.30
2023-03-29T10:31:08.472Z,80.90
2023-03-29T10:34:02.818Z,81.10
2023-03-29T10:37:01.350Z,81.60
2023-03-29T10:39:49.459Z,82.10
2023-03-29T10:42:34.956Z,82.80
2023-03-29T10:45:31.182Z,82.50
2023-03-29T10:48:18.089Z,82.10
2023-03-29T10:51:05.992Z,83.30
2023-03-29T10:53:51.644Z,82.50
2023-03-29T10:56:43.149Z,82.70
2023-03-29T10:59:38.121Z,83.20
2023-03-29T11:02:30.073Z,82.50
2023-03-29T11:05:29.673Z,83.00
2023-03-29T11:08:32.106Z,82.70
2023-03-29T11:11:38.996Z,82.10
2023-03-29T11:14:44.645Z,82.80
2023-03-29T11:17:39.695Z,82.00
2023-03-29T11:20:38.263Z,81.40
2023-03-29T11:23:42.799Z,81.10
2023-03-29T11:26:36.679Z,82.00
2023-03-29T11:29:35.318Z,80.00
2023-03-29T11:32:48.416Z,79.40
2023-03-29T11:35:57.364Z,79.30
2023-03-29T11:38:59.811Z,80.30
2023-03-29T11:41:49.645Z,81.20
2023-03-29T11:44:36.601Z,82.10
2023-03-29T11:47:24.611Z,84.00
2023-03-29T11:50:39.446Z,83.50
2023-03-29T11:54:19.641Z,84.30
2023-03-29T11:57:14.426Z,83.80
2023-03-29T12:00:30.784Z,83.10
2023-03-29T12:03:34.413Z,83.30
2023-03-29T12:06:48.253Z,83.90
2023-03-29T12:09:42.660Z,83.80
2023-03-29T12:13:05.869Z,83.30
2023-03-29T12:16:01.345Z,83.20
2023-03-29T12:18:50.004Z,83.30
2023-03-29T12:21:37.073Z,82.70
2023-03-29T12:24:25.288Z,82.60
2023-03-29T12:27:35.019Z,81.40
2023-03-29T12:30:49.634Z,81.90
2023-03-29T12:34:17.962Z,80.90
2023-03-29T12:37:47.046Z,81.70
2023-03-29T12:41:00.642Z,82.20
2023-03-29T12:44:07.752Z,81.60
2023-03-29T12:47:03.201Z,80.70
2023-03-29T12:49:56.554Z,79.70
2023-03-29T12:52:43.035Z,77.90
2023-03-29T12:55:48.715Z,76.60
2023-03-29T12:58:58.192Z,74.90
2023-03-29T13:02:02.732Z,74.50
2023-03-29T13:04:57.395Z,72.40
2023-03-29T13:07:47.532Z,71.50
2023-03-29T13:10:42.167Z,70.30
2023-03-29T13:13:40.614Z,70.70
2023-03-29T13:16:35.863Z,71.00
2023-03-29T13:19:55.701Z,69.40
2023-03-29T13:22:50.428Z,68.30
2023-03-29T13:26:16.073Z,67.20
2023-03-29T13:29:26.896Z,66.70
2023-03-29T13:32:21.463Z,66.90
2023-03-29T13:35:31.429Z,68.20
2023-03-29T13:38:27.840Z,69.20
2023-03-29T13:41:28.092Z,70.70
2023-03-29T13:44:46.008Z,71.20
2023-03-29T13:47:32.469Z,70.80
2023-03-29T13:50:52.397Z,71.00
2023-03-29T13:53:55.192Z,70.70
2023-03-29T13:56:52.496Z,70.90
2023-03-29T13:59:42.935Z,70.40
2023-03-29T14:02:40.829Z,69.50
2023-03-29T14:05:35.868Z,68.60
2023-03-29T14:08:29.470Z,67.80
2023-03-29T14:11:28.715Z,67.30
2023-03-29T14:14:14.964Z,66.70
2023-03-29T14:17:01.353Z,66.80
2023-03-29T14:19:48.443Z,66.80
2023-03-29T14:22:34.637Z,67.50
2023-03-29T14:25:22.715Z,66.30
2023-03-29T14:28:28.377Z,65.40
2023-03-29T14:31:22.962Z,63.90
2023-03-29T14:34:14.429Z,61.60
2023-03-29T14:37:00.052Z,61.70
2023-03-29T14:39:45.771Z,61.50
2023-03-29T14:42:36.981Z,61.50
2023-03-29T14:45:26.240Z,62.10
2023-03-29T14:48:17.139Z,60.80
2023-03-29T14:51:02.970Z,59.10
2023-03-29T14:53:55.504Z,59.70
2023-03-29T14:56:41.438Z,61.00
2023-03-29T14:59:38.864Z,62.30
2023-03-29T15:02:30.335Z,63.00
2023-03-29T15:05:34.860Z,64.20
2023-03-29T15:08:32.870Z,65.30
2023-03-29T15:11:24.692Z,65.70
2023-03-29T15:14:16.547Z,66.20
2023-03-29T15:17:14.867Z,67.30
2023-03-29T15:20:24.577Z,67.70
2023-03-29T15:23:17.358Z,68.10
2023-03-29T15:26:13.986Z,69.20
2023-03-29T15:29:25.923Z,69.90
2023-03-29T15:32:21.221Z,70.60
2023-03-29T15:35:09.312Z,71.30
2023-03-29T15:37:54.626Z,71.70
2023-03-29T15:40:42.423Z,72.00
2023-03-29T15:43:29.437Z,72.70
2023-03-29T15:46:16.361Z,73.10
2023-03-29T15:49:01.965Z,73.50
2023-03-29T15:51:47.721Z,73.90
2023-03-29T15:54:33.895Z,74.30
2023-03-29T15:57:20.012Z,74.60
2023-03-29T16:00:09.662Z,74.90
2023-03-29T16:03:01.515Z,75.40
2023-03-29T16:05:49.423Z,75.90
2023-03-29T16:08:36.421Z,76.00
2023-03-29T16:11:22.271Z,76.30
2023-03-29T16:14:29.801Z,76.70
2023-03-29T16:17:15.882Z,76.80
2023-03-29T16:20:01.363Z,77.10
2023-03-29T16:22:48.142Z,77.50
2023-03-29T16:25:34.263Z,77.60
2023-03-29T16:28:19.685Z,77.90
2023-03-29T16:31:05.845Z,78.30
2023-03-29T16:33:51.621Z,78.50
2023-03-29T16:36:37.431Z,79.00
2023-03-29T16:39:22.967Z,79.00
2023-03-29T16:42:11.351Z,79.20
2023-03-29T16:44:56.744Z,79.40
2023-03-29T16:47:45.541Z,79.50
2023-03-29T16:50:33.975Z,79.70
2023-03-29T16:53:21.718Z,79.80
2023-03-29T16:56:07.916Z,80.00
2023-03-29T16:58:53.158Z,79.90
2023-03-29T17:01:42.223Z,80.00
2023-03-29T17:04:27.913Z,80.10
2023-03-29T17:07:16.901Z,80.30
2023-03-29T17:10:04.742Z,80.40
2023-03-29T17:12:50.678Z,80.70
2023-03-29T17:15:39.409Z,81.00
2023-03-29T17:18:29.578Z,81.20
2023-03-29T17:21:16.387Z,81.60
2023-03-29T17:24:01.622Z,81.90
2023-03-29T17:26:47.180Z,82.20
2023-03-29T17:29:32.876Z,82.50
2023-03-29T17:32:18.160Z,82.80
2023-03-29T17:35:04.243Z,83.00
2023-03-29T17:37:49.658Z,83.40
2023-03-29T17:40:35.526Z,83.80
2023-03-29T17:43:21.128Z,84.10
2023-03-29T17:46:09.812Z,84.30
2023-03-29T17:48:58.739Z,84.60
2023-03-29T17:51:44.782Z,84.90
2023-03-29T17:54:30.729Z,85.30
2023-03-29T17:57:16.262Z,85.60
2023-03-29T18:00:01.923Z,85.90
2023-03-29T18:02:52.988Z,86.30
2023-03-29T18:05:38.592Z,86.70
2023-03-29T18:08:24.303Z,87.10
2023-03-29T18:11:22.319Z,87.50
2023-03-29T18:14:07.739Z,87.90
2023-03-29T18:16:57.088Z,88.30
2023-03-29T18:19:42.589Z,88.70
2023-03-29T18:22:28.604Z,89.70
2023-03-29T18:25:14.831Z,89.00
2023-03-29T18:28:03.050Z,89.40
2023-03-29T18:30:51.789Z,89.60
2023-03-29T18:33:37.432Z,89.80
2023-03-29T18:36:26.180Z,90.00
2023-03-29T18:39:13.562Z,90.10
2023-03-29T18:41:59.354Z,90.10
2023-03-29T18:44:44.749Z,90.20
2023-03-29T18:47:30.684Z,90.30
2023-03-29T18:50:15.935Z,90.40
2023-03-29T18:53:01.549Z,90.50
2023-03-29T18:55:47.184Z,90.60
2023-03-29T18:58:32.854Z,90.60
2023-03-29T19:01:21.944Z,90.80
2023-03-29T19:04:07.393Z,90.90
2023-03-29T19:06:53.848Z,91.00
2023-03-29T19:09:39.722Z,91.00
2023-03-29T19:12:25.296Z,91.20
2023-03-29T19:15:11.703Z,91.20
2023-03-29T19:17:57.168Z,91.20
2023-03-29T19:20:42.513Z,91.30
2023-03-29T19:23:28.307Z,91.40
2023-03-29T19:26:20.840Z,91.50
2023-03-29T19:29:06.567Z,91.50
2023-03-29T19:31:52.006Z,91.50
2023-03-29T19:34:37.504Z,91.60
2023-03-29T19:37:23.188Z,91.70
2023-03-29T19:40:11.167Z,91.70
2023-03-29T19:42:56.494Z,91.80
2023-03-29T19:45:50.112Z,91.80
2023-03-29T19:48:36.910Z,91.90
2023-03-29T19:51:24.423Z,92.00
2023-03-29T19:54:12.246Z,92.00
2023-03-29T19:56:58.094Z,92.00
2023-03-29T19:59:43.642Z,92.30
2023-03-29T20:02:29.156Z,92.70
2023-03-29T20:05:17.831Z,92.70
2023-03-29T20:08:03.469Z,92.70
2023-03-29T20:10:48.899Z,92.70
2023-03-29T20:13:38.883Z,92.70
2023-03-29T20:16:26.309Z,92.70
2023-03-29T20:19:14.169Z,92.70
2023-03-29T20:22:00.709Z,92.70
2023-03-29T20:24:46.273Z,92.70
2023-03-29T20:27:31.796Z,92.70
2023-03-29T20:30:17.495Z,92.80
2023-03-29T20:33:04.334Z,92.80
2023-03-29T20:35:51.038Z,92.80
2023-03-29T20:38:37.050Z,92.90
2023-03-29T20:41:22.851Z,92.90
2023-03-29T20:44:08.711Z,92.90
2023-03-29T20:47:03.276Z,92.90
2023-03-29T20:49:54.056Z,92.90
2023-03-29T20:52:39.825Z,92.90
2023-03-29T20:55:25.183Z,92.90
2023-03-29T20:58:10.751Z,92.80
2023-03-29T21:00:59.009Z,92.80
2023-03-29T21:03:44.456Z,92.80
2023-03-29T21:06:33.592Z,92.80
2023-03-29T21:09:21.788Z,92.70
2023-03-29T21:12:07.423Z,92.70
2023-03-29T21:14:52.922Z,92.90
2023-03-29T21:17:38.724Z,93.00
2023-03-29T21:20:24.397Z,93.00
2023-03-29T21:23:09.745Z,93.20
2023-03-29T21:25:56.198Z,93.30
2023-03-29T21:28:42.302Z,93.50
2023-03-29T21:31:27.920Z,93.60
2023-03-29T21:34:13.813Z,93.50
2023-03-29T21:37:00.263Z,93.50
2023-03-29T21:39:46.002Z,93.50
2023-03-29T21:42:32.380Z,93.50
2023-03-29T21:45:17.972Z,93.40
2023-03-29T21:48:03.512Z,93.30
2023-03-29T21:50:56.306Z,93.10
2023-03-29T21:53:41.857Z,92.90
2023-03-29T21:56:28.441Z,92.90
2023-03-29T21:59:14.352Z,92.70
2023-03-29T22:02:03.941Z,92.70
2023-03-29T22:04:49.344Z,92.60
2023-03-29T22:07:35.808Z,92.60
2023-03-29T22:10:22.848Z,92.50
2023-03-29T22:13:09.284Z,92.20
2023-03-29T22:15:56.356Z,92.20
2023-03-29T22:18:44.426Z,92.20
2023-03-29T22:21:31.175Z,91.70
2023-03-29T22:24:16.857Z,91.30
2023-03-29T22:27:02.830Z,90.90
2023-03-29T22:29:48.748Z,90.10
2023-03-29T22:32:34.095Z,89.20
2023-03-29T22:35:20.639Z,88.50
2023-03-29T22:38:06.239Z,87.80
2023-03-29T22:40:51.665Z,87.60
2023-03-29T22:43:37.560Z,87.10
2023-03-29T22:46:23.643Z,87.00
2023-03-29T22:49:14.719Z,87.00
2023-03-29T22:52:03.402Z,86.80
2023-03-29T22:54:48.876Z,86.60
2023-03-29T22:57:34.118Z,86.40
2023-03-29T23:00:20.738Z,86.10
2023-03-29T23:03:06.550Z,85.40
2023-03-29T23:05:55.991Z,85.30
2023-03-29T23:08:41.452Z,85.20
2023-03-29T23:11:26.857Z,84.60
2023-03-29T23:14:14.891Z,84.70
2023-03-29T23:17:10.198Z,84.10
2023-03-29T23:19:56.106Z,83.90
2023-03-29T23:22:41.678Z,83.50
2023-03-29T23:25:27.412Z,83.40
2023-03-29T23:28:13.589Z,82.50
2023-03-29T23:31:00.509Z,81.20
2023-03-29T23:33:46.059Z,80.40
2023-03-29T23:36:31.833Z,79.30
2023-03-29T23:39:17.382Z,78.70
2023-03-29T23:42:04.286Z,76.90
2023-03-29T23:44:49.772Z,74.70
2023-03-29T23:47:35.542Z,73.00
2023-03-29T23:50:22.502Z,71.10
2023-03-29T23:53:16.979Z,69.60
2023-03-29T23:56:04.598Z,69.10
2023-03-29T23:58:50.288Z,71.70
